メインページ
METAR-TAF:

METAR-TAF

空港 :

マシュハド国際空港

マシュハド, イラン

緯度: 36-16N, 経度: 059-38E, 海抜: 989m

現時点の気象観測

当レポートは6分前の18:30(UTC)に作成
の風 4kt
気温 5°C
湿度 48%
気圧 1030 hPa
視程10km以上
1,500メートル以下は雲なし、積乱雲なし

METAR: OIMM 171830Z 19004KT CAVOK 05/M05 Q1030 A3042

時間: 22:06 (18:36 UTC)

予報

当レポートは7時間6分前の11:30(UTC)に作成
予報は17日の 12時(UTC)から 18日の 18時(UTC)まで有効
の風 8kt
視程: 7000m
高度4000ftの雲はほとんどない
高度10000ftの雲は散在している
17日の 06時(UTC)から 17日の 12時(UTC)まで一時的に
北東の風 14kt
17日の 18時(UTC)から 17日の 20時(UTC)まで徐々に
高度2500ftの雲は散在している
高度3500ftの雲はほとんどない, 積乱雲.
高度9000ftの千切れ雲あり
確率 40% :
17日の 20時(UTC)から 18日の 09時(UTC)まで一時的に
視程: 4000m
雪, 靄
18日の 09時(UTC)から 18日の 12時(UTC)まで一時的に
北東の風 14kt

TAF: OIMM 171130Z 1712/1818 10008KT 7000 FEW040 SCT100 TEMPO 1706/1712 04014KT BECMG 1718/1720 SCT025 FEW035CB BKN090 PROB40 TEMPO 1720/1809 4000 SN BR TEMPO 1809/1812 04014KT

4,000以上の空港の気象観測と天気予報(METAR報とTAF報)

利用可能な観測所は地図上に黄色い丸と赤い丸で示す。

丸の上にカーソルを重ねると観測所名を参照できる。

次にクリックすると気象観測と天気予報を参照できる。

マップの切り替え:黒色「×」印の緑ボタンをクリックして拡大、「-」印の緑ボタンをクリックして縮小、緑色の三角印をクリックして隣りの地図に切り替え


METAR-TAF: